»·PEaware :: N2442P KGCN-KSEZ

N2442P :: KGCN-KSEZ

FLIGHT INFORMATION

Flight Status: Arrived
Operator: Privately registered:
United States
More flights under this callsign
Pilot: Ken Q. (14290)
Aircraft: MOONEY M-20K/M ENCORE BRAVO
(M20T)
More flights by this aircraft type
Origin: KGCN Grand Canyon Natl Park
United States
Destination: KSEZ Sedona
United States
More flights between these airports :: More routes between these airports
Route: KGCN FLG KSEZ
File this flight plan on PilotEdge
Remarks: X
Altitude:
(Current/Filed)
10,500ft
Speed:
(Current/Filed)
165kts
Departed: 12-Sep-19 01:55 PM
Arrived: 12-Sep-19 02:26 PM
Distance/Time
Traveled:
1nm/0:31
Distance/Time
To Go:
Arrived

Flight Plot

Page will automatically refresh every two minutes.

Flight plan parsing failed; only flown route is shown


Map Options




Map Legend


Flown Route
Filed Route
Departure Airport
Arrival Airport
Navaid (VOR, NDB)
Fix

Horizontal Profiles

Position Reports

Time Latitude Longitude Heading Altitude Ground
Speed
12-Sep-19 13:28 35.961153 -112.135444 222 6612ft 0kts
12-Sep-19 13:29 35.961153 -112.135444 222 6612ft 0kts
12-Sep-19 13:30 35.961153 -112.135444 222 6612ft 0kts
12-Sep-19 13:31 35.961153 -112.135444 222 6612ft 0kts
12-Sep-19 13:32 35.961153 -112.135444 222 6612ft 0kts
12-Sep-19 13:33 35.961153 -112.135444 222 6612ft 0kts
12-Sep-19 13:34 35.961153 -112.135444 222 6612ft 0kts
12-Sep-19 13:35 35.961153 -112.135444 222 6612ft 0kts
12-Sep-19 13:36 35.961153 -112.135444 222 6612ft 0kts
12-Sep-19 13:37 35.961153 -112.135444 222 6612ft 0kts
12-Sep-19 13:38 35.961153 -112.135444 222 6612ft 0kts
12-Sep-19 13:39 35.961153 -112.135444 222 6612ft 0kts
12-Sep-19 13:40 35.961153 -112.135445 222 6612ft 0kts
12-Sep-19 13:41 35.961152 -112.135445 222 6612ft 0kts
12-Sep-19 13:42 35.961152 -112.135445 222 6612ft 0kts
12-Sep-19 13:43 35.961152 -112.135446 222 6612ft 0kts
12-Sep-19 13:44 35.959917 -112.137274 217 6612ft 26kts
12-Sep-19 13:45 35.955632 -112.141723 220 6612ft 21kts
12-Sep-19 13:46 35.950711 -112.146855 221 6612ft 17kts
12-Sep-19 13:47 35.947291 -112.150508 221 6612ft 13kts
12-Sep-19 13:48 35.945039 -112.152905 220 6612ft 24kts
12-Sep-19 13:49 35.942775 -112.155283 220 6612ft 6kts
12-Sep-19 13:50 35.942378 -112.155816 336 6612ft 0kts
12-Sep-19 13:51 35.942380 -112.155818 336 6612ft 0kts
12-Sep-19 13:52 35.942387 -112.155821 335 6612ft 0kts
12-Sep-19 13:53 35.942588 -112.156108 309 6612ft 3kts
12-Sep-19 13:54 35.944917 -112.154835 41 6612ft 53kts
12-Sep-19 13:55 35.963170 -112.131861 87 6927ft 119kts
12-Sep-19 13:56 35.933054 -112.142553 217 7557ft 152kts
12-Sep-19 13:57 35.896247 -112.163725 154 8064ft 150kts
12-Sep-19 13:58 35.858333 -112.141113 150 8562ft 152kts
12-Sep-19 13:59 35.822083 -112.113212 142 9050ft 154kts
12-Sep-19 14:00 35.786498 -112.082894 142 9542ft 157kts
12-Sep-19 14:01 35.750316 -112.051316 142 10035ft 161kts
12-Sep-19 14:02 35.713371 -112.018439 142 10489ft 168kts
12-Sep-19 14:03 35.672168 -111.984015 145 10496ft 185kts
12-Sep-19 14:04 35.628463 -111.948422 145 10493ft 188kts
12-Sep-19 14:05 35.582084 -111.917745 158 10481ft 190kts
12-Sep-19 14:06 35.531430 -111.898660 164 10479ft 190kts
12-Sep-19 14:07 35.479602 -111.883402 167 10479ft 191kts
12-Sep-19 14:08 35.427309 -111.870992 169 10472ft 189kts
12-Sep-19 14:09 35.378612 -111.850371 148 10478ft 186kts
12-Sep-19 14:10 35.334131 -111.817885 148 10483ft 186kts
12-Sep-19 14:11 35.289520 -111.785405 149 10486ft 187kts
12-Sep-19 14:12 35.244280 -111.753572 149 10479ft 187kts
12-Sep-19 14:13 35.198236 -111.724928 156 10467ft 186kts
12-Sep-19 14:14 35.152196 -111.707589 174 10015ft 187kts
12-Sep-19 14:15 35.100839 -111.707132 185 9513ft 182kts
12-Sep-19 14:16 35.051094 -111.717661 192 9017ft 181kts
12-Sep-19 14:17 35.001942 -111.729847 182 8614ft 174kts
12-Sep-19 14:18 34.957548 -111.744469 201 8556ft 161kts
12-Sep-19 14:19 34.918461 -111.763842 201 8199ft 137kts
12-Sep-19 14:20 34.886778 -111.785327 227 7595ft 134kts
12-Sep-19 14:21 34.860385 -111.817983 227 6986ft 127kts
12-Sep-19 14:23 34.836600 -111.848883 210 6173ft 127kts
12-Sep-19 14:24 34.818899 -111.828013 55 5603ft 98kts
12-Sep-19 14:25 34.836031 -111.804133 43 5059ft 89kts
12-Sep-19 14:26 34.848420 -111.788728 37 4778ft 6kts
12-Sep-19 14:27 34.849319 -111.789262 271 4778ft 2kts
12-Sep-19 14:28 34.849313 -111.789661 311 4778ft 0kts
12-Sep-19 14:29 34.849313 -111.789661 311 4778ft 0kts
12-Sep-19 14:30 35.961153 -112.135444 222 6612ft 0kts

Navigation Log

Ident Type
Flight plan parsing failed, navigation log unavailable